Weather at Castle Kennedy Airfield

Public forecast

Using degrees Celsius for public forecast. Weather courtesy of forecast.io.

Closest aviation weather report (METAR) to Castle Kennedy Airfield

Closest report is George Best Belfast City Airport, 36.5 nm (67.6 km) WSW. Retrieved 2022/08/19 14:20 UTC (13 minutes ago):

EGAC 191420Z AUTO 23013KT 210V280 9999 FEW037/// SCT048/// //////TCU 19/10 Q1010

Closest aviation forecast (TAF) to Castle Kennedy Airfield

Forecast is more than 12 hours old.

Closest forecast is George Best Belfast City Airport, 36.5 nm (67.6 km) WSW. Retrieved 2021/12/01 18:06 UTC (9 months ago):

TAF TAF EGAC 010102Z 3018/0103 CNL